sensor_id;sensor_type;location;lat;lon;timestamp;temperature;humidity
3332;DHT22;1678;50.94845400;5.30809100;2022-12-18T00:00:06;-6.00;99.90
3332;DHT22;1678;50.94845400;5.30809100;2022-12-18T00:02:35;-6.10;99.90
3332;DHT22;1678;50.94845400;5.30809100;2022-12-18T00:05:04;-6.10;99.90
3332;DHT22;1678;50.94845400;5.30809100;2022-12-18T00:07:32;-6.10;99.90
3332;DHT22;1678;50.94845400;5.30809100;2022-12-18T00:10:00;-6.10;99.90
3332;DHT22;1678;50.94845400;5.30809100;2022-12-18T00:12:28;-6.20;99.90
3332;DHT22;1678;50.94845400;5.30809100;2022-12-18T00:14:56;-6.20;99.90
3332;DHT22;1678;50.94845400;5.30809100;2022-12-18T00:17:26;-6.10;99.90
3332;DHT22;1678;50.94845400;5.30809100;2022-12-18T00:19:54;-6.00;99.90
3332;DHT22;1678;50.94845400;5.30809100;2022-12-18T00:22:22;-6.00;99.90
3332;DHT22;1678;50.94845400;5.30809100;2022-12-18T00:24:50;-6.10;99.90
3332;DHT22;1678;50.94845400;5.30809100;2022-12-18T00:27:18;-5.90;99.90
3332;DHT22;1678;50.94845400;5.30809100;2022-12-18T00:29:48;-5.90;99.90
3332;DHT22;1678;50.94845400;5.30809100;2022-12-18T00:32:16;-5.80;99.90
3332;DHT22;1678;50.94845400;5.30809100;2022-12-18T00:34:46;-5.70;99.90
3332;DHT22;1678;50.94845400;5.30809100;2022-12-18T00:37:14;-5.80;99.90
3332;DHT22;1678;50.94845400;5.30809100;2022-12-18T00:39:48;-5.90;99.90
3332;DHT22;1678;50.94845400;5.30809100;2022-12-18T00:42:16;-6.00;99.90
3332;DHT22;1678;50.94845400;5.30809100;2022-12-18T00:45:02;-6.10;99.90
3332;DHT22;1678;50.94845400;5.30809100;2022-12-18T00:47:38;-6.10;99.90
3332;DHT22;1678;50.94845400;5.30809100;2022-12-18T00:50:08;-6.30;99.90
3332;DHT22;1678;50.94845400;5.30809100;2022-12-18T00:52:37;-6.20;99.90
3332;DHT22;1678;50.94845400;5.30809100;2022-12-18T00:55:05;-6.20;99.90
3332;DHT22;1678;50.94845400;5.30809100;2022-12-18T00:57:34;-6.10;99.90
3332;DHT22;1678;50.94845400;5.30809100;2022-12-18T01:00:03;-6.00;99.90
3332;DHT22;1678;50.94845400;5.30809100;2022-12-18T01:02:32;-5.90;99.90
3332;DHT22;1678;50.94845400;5.30809100;2022-12-18T01:05:00;-6.00;99.90
3332;DHT22;1678;50.94845400;5.30809100;2022-12-18T01:07:29;-6.10;99.90
3332;DHT22;1678;50.94845400;5.30809100;2022-12-18T01:09:59;-6.20;99.90
3332;DHT22;1678;50.94845400;5.30809100;2022-12-18T01:12:27;-6.20;99.90
3332;DHT22;1678;50.94845400;5.30809100;2022-12-18T01:14:55;-6.30;99.90
3332;DHT22;1678;50.94845400;5.30809100;2022-12-18T01:17:23;-6.30;99.90
3332;DHT22;1678;50.94845400;5.30809100;2022-12-18T01:19:51;-6.40;99.90
3332;DHT22;1678;50.94845400;5.30809100;2022-12-18T01:22:19;-6.40;99.90
3332;DHT22;1678;50.94845400;5.30809100;2022-12-18T01:24:48;-6.60;99.90
3332;DHT22;1678;50.94845400;5.30809100;2022-12-18T01:27:16;-6.50;99.90
3332;DHT22;1678;50.94845400;5.30809100;2022-12-18T01:29:45;-6.30;99.90
3332;DHT22;1678;50.94845400;5.30809100;2022-12-18T01:32:13;-6.30;99.90
3332;DHT22;1678;50.94845400;5.30809100;2022-12-18T01:34:41;-6.30;99.90
3332;DHT22;1678;50.94845400;5.30809100;2022-12-18T01:37:09;-6.30;99.90
3332;DHT22;1678;50.94845400;5.30809100;2022-12-18T01:39:37;-6.40;99.90
3332;DHT22;1678;50.94845400;5.30809100;2022-12-18T01:42:09;-6.40;99.90
3332;DHT22;1678;50.94845400;5.30809100;2022-12-18T01:45:03;-6.40;99.90
3332;DHT22;1678;50.94845400;5.30809100;2022-12-18T01:47:41;-6.50;99.90
3332;DHT22;1678;50.94845400;5.30809100;2022-12-18T01:50:13;-6.50;99.90
3332;DHT22;1678;50.94845400;5.30809100;2022-12-18T01:52:44;-6.40;99.90
3332;DHT22;1678;50.94845400;5.30809100;2022-12-18T01:55:16;-6.20;99.90
3332;DHT22;1678;50.94845400;5.30809100;2022-12-18T01:57:47;-6.20;99.90
3332;DHT22;1678;50.94845400;5.30809100;2022-12-18T02:00:17;-6.30;99.90
3332;DHT22;1678;50.94845400;5.30809100;2022-12-18T02:02:46;-6.20;99.90
3332;DHT22;1678;50.94845400;5.30809100;2022-12-18T02:05:17;-6.30;99.90
3332;DHT22;1678;50.94845400;5.30809100;2022-12-18T02:07:54;-6.20;99.90
3332;DHT22;1678;50.94845400;5.30809100;2022-12-18T02:10:29;-6.30;99.90
3332;DHT22;1678;50.94845400;5.30809100;2022-12-18T02:13:06;-6.40;99.90
3332;DHT22;1678;50.94845400;5.30809100;2022-12-18T02:15:40;-6.40;99.90
3332;DHT22;1678;50.94845400;5.30809100;2022-12-18T02:18:11;-6.40;99.90
3332;DHT22;1678;50.94845400;5.30809100;2022-12-18T02:20:43;-6.40;99.90
3332;DHT22;1678;50.94845400;5.30809100;2022-12-18T02:23:24;-6.20;99.90
3332;DHT22;1678;50.94845400;5.30809100;2022-12-18T02:26:15;-6.10;99.90
3332;DHT22;1678;50.94845400;5.30809100;2022-12-18T02:28:49;-6.10;99.90
3332;DHT22;1678;50.94845400;5.30809100;2022-12-18T02:31:22;-6.20;99.90
3332;DHT22;1678;50.94845400;5.30809100;2022-12-18T02:33:53;-6.20;99.90
3332;DHT22;1678;50.94845400;5.30809100;2022-12-18T02:36:23;-6.20;99.90
3332;DHT22;1678;50.94845400;5.30809100;2022-12-18T02:38:52;-6.30;99.90
3332;DHT22;1678;50.94845400;5.30809100;2022-12-18T02:41:26;-6.30;99.90
3332;DHT22;1678;50.94845400;5.30809100;2022-12-18T02:43:56;-6.40;99.90
3332;DHT22;1678;50.94845400;5.30809100;2022-12-18T02:46:35;-6.30;99.90
3332;DHT22;1678;50.94845400;5.30809100;2022-12-18T02:49:16;-6.30;99.90
3332;DHT22;1678;50.94845400;5.30809100;2022-12-18T02:51:53;-6.50;99.90
3332;DHT22;1678;50.94845400;5.30809100;2022-12-18T02:54:31;-6.60;99.90
3332;DHT22;1678;50.94845400;5.30809100;2022-12-18T02:57:08;-6.60;99.90
3332;DHT22;1678;50.94845400;5.30809100;2022-12-18T02:59:47;-6.70;99.90
3332;DHT22;1678;50.94845400;5.30809100;2022-12-18T03:02:21;-6.80;99.90
3332;DHT22;1678;50.94845400;5.30809100;2022-12-18T03:04:56;-6.80;99.90
3332;DHT22;1678;50.94845400;5.30809100;2022-12-18T03:07:30;-6.70;99.90
3332;DHT22;1678;50.94845400;5.30809100;2022-12-18T03:10:01;-6.70;99.90
3332;DHT22;1678;50.94845400;5.30809100;2022-12-18T03:12:32;-6.80;99.90
3332;DHT22;1678;50.94845400;5.30809100;2022-12-18T03:15:04;-6.80;99.90
3332;DHT22;1678;50.94845400;5.30809100;2022-12-18T03:17:44;-6.90;99.90
3332;DHT22;1678;50.94845400;5.30809100;2022-12-18T03:20:18;-6.90;99.90
3332;DHT22;1678;50.94845400;5.30809100;2022-12-18T03:22:50;-6.90;99.90
3332;DHT22;1678;50.94845400;5.30809100;2022-12-18T03:25:20;-6.80;99.90
3332;DHT22;1678;50.94845400;5.30809100;2022-12-18T03:27:55;-6.80;99.90
3332;DHT22;1678;50.94845400;5.30809100;2022-12-18T03:30:25;-6.80;99.90
3332;DHT22;1678;50.94845400;5.30809100;2022-12-18T03:32:58;-6.80;99.90
3332;DHT22;1678;50.94845400;5.30809100;2022-12-18T03:35:32;-6.80;99.90
3332;DHT22;1678;50.94845400;5.30809100;2022-12-18T03:38:01;-6.80;99.90
3332;DHT22;1678;50.94845400;5.30809100;2022-12-18T03:40:37;-6.80;99.90
3332;DHT22;1678;50.94845400;5.30809100;2022-12-18T03:43:11;-6.90;99.90
3332;DHT22;1678;50.94845400;5.30809100;2022-12-18T03:45:44;-7.10;99.90
3332;DHT22;1678;50.94845400;5.30809100;2022-12-18T03:48:19;-7.20;99.90
3332;DHT22;1678;50.94845400;5.30809100;2022-12-18T03:50:53;-7.30;99.90
3332;DHT22;1678;50.94845400;5.30809100;2022-12-18T03:53:31;-7.30;99.90
3332;DHT22;1678;50.94845400;5.30809100;2022-12-18T03:56:04;-7.30;99.90
3332;DHT22;1678;50.94845400;5.30809100;2022-12-18T03:58:34;-7.40;99.90
3332;DHT22;1678;50.94845400;5.30809100;2022-12-18T04:01:08;-7.40;99.90
3332;DHT22;1678;50.94845400;5.30809100;2022-12-18T04:03:38;-7.40;99.90
3332;DHT22;1678;50.94845400;5.30809100;2022-12-18T04:06:07;-7.40;99.90
3332;DHT22;1678;50.94845400;5.30809100;2022-12-18T04:08:36;-7.50;99.90
3332;DHT22;1678;50.94845400;5.30809100;2022-12-18T04:11:05;-7.50;99.90
3332;DHT22;1678;50.94845400;5.30809100;2022-12-18T04:13:36;-7.50;99.90
3332;DHT22;1678;50.94845400;5.30809100;2022-12-18T04:16:05;-7.50;99.90
3332;DHT22;1678;50.94845400;5.30809100;2022-12-18T04:18:34;-7.50;99.90
3332;DHT22;1678;50.94845400;5.30809100;2022-12-18T04:21:02;-7.50;99.90
3332;DHT22;1678;50.94845400;5.30809100;2022-12-18T04:23:31;-7.60;99.90
3332;DHT22;1678;50.94845400;5.30809100;2022-12-18T04:25:59;-7.60;99.90
3332;DHT22;1678;50.94845400;5.30809100;2022-12-18T04:28:27;-7.70;99.90
3332;DHT22;1678;50.94845400;5.30809100;2022-12-18T04:30:56;-7.70;99.90
3332;DHT22;1678;50.94845400;5.30809100;2022-12-18T04:33:24;-7.70;99.90
3332;DHT22;1678;50.94845400;5.30809100;2022-12-18T04:35:52;-7.70;99.90
3332;DHT22;1678;50.94845400;5.30809100;2022-12-18T04:38:20;-7.60;99.90
3332;DHT22;1678;50.94845400;5.30809100;2022-12-18T04:40:48;-7.60;99.90
3332;DHT22;1678;50.94845400;5.30809100;2022-12-18T04:43:16;-7.60;99.90
3332;DHT22;1678;50.94845400;5.30809100;2022-12-18T04:45:45;-7.70;99.90
3332;DHT22;1678;50.94845400;5.30809100;2022-12-18T04:48:14;-7.70;99.90
3332;DHT22;1678;50.94845400;5.30809100;2022-12-18T04:50:42;-7.80;99.90
3332;DHT22;1678;50.94845400;5.30809100;2022-12-18T04:53:10;-7.60;99.90
3332;DHT22;1678;50.94845400;5.30809100;2022-12-18T04:55:38;-7.50;99.90
3332;DHT22;1678;50.94845400;5.30809100;2022-12-18T04:58:06;-7.50;99.90
3332;DHT22;1678;50.94845400;5.30809100;2022-12-18T05:00:35;-7.40;99.90
3332;DHT22;1678;50.94845400;5.30809100;2022-12-18T05:03:03;-7.40;99.90
3332;DHT22;1678;50.94845400;5.30809100;2022-12-18T05:05:34;-7.40;99.90
3332;DHT22;1678;50.94845400;5.30809100;2022-12-18T05:08:02;-7.50;99.90
3332;DHT22;1678;50.94845400;5.30809100;2022-12-18T05:10:31;-7.60;99.90
3332;DHT22;1678;50.94845400;5.30809100;2022-12-18T05:13:04;-7.60;99.90
3332;DHT22;1678;50.94845400;5.30809100;2022-12-18T05:15:32;-7.60;99.90
3332;DHT22;1678;50.94845400;5.30809100;2022-12-18T05:18:02;-7.60;99.90
3332;DHT22;1678;50.94845400;5.30809100;2022-12-18T05:20:30;-7.60;99.90
3332;DHT22;1678;50.94845400;5.30809100;2022-12-18T05:22:59;-7.60;99.90
3332;DHT22;1678;50.94845400;5.30809100;2022-12-18T05:25:27;-7.60;99.90
3332;DHT22;1678;50.94845400;5.30809100;2022-12-18T05:27:56;-7.70;99.90
3332;DHT22;1678;50.94845400;5.30809100;2022-12-18T05:30:25;-7.70;99.90
3332;DHT22;1678;50.94845400;5.30809100;2022-12-18T05:32:54;-7.60;99.90
3332;DHT22;1678;50.94845400;5.30809100;2022-12-18T05:35:22;-7.50;99.90
3332;DHT22;1678;50.94845400;5.30809100;2022-12-18T05:37:50;-7.40;99.90
3332;DHT22;1678;50.94845400;5.30809100;2022-12-18T05:40:20;-7.40;99.90
3332;DHT22;1678;50.94845400;5.30809100;2022-12-18T05:42:48;-7.50;99.90
3332;DHT22;1678;50.94845400;5.30809100;2022-12-18T05:45:16;-7.60;99.90
3332;DHT22;1678;50.94845400;5.30809100;2022-12-18T05:47:44;-7.70;99.90
3332;DHT22;1678;50.94845400;5.30809100;2022-12-18T05:50:12;-7.70;99.90
3332;DHT22;1678;50.94845400;5.30809100;2022-12-18T05:52:40;-7.80;99.90
3332;DHT22;1678;50.94845400;5.30809100;2022-12-18T05:55:08;-7.80;99.90
3332;DHT22;1678;50.94845400;5.30809100;2022-12-18T05:57:38;-7.80;99.90
3332;DHT22;1678;50.94845400;5.30809100;2022-12-18T06:00:07;-7.70;99.90
3332;DHT22;1678;50.94845400;5.30809100;2022-12-18T06:02:35;-7.70;99.90
3332;DHT22;1678;50.94845400;5.30809100;2022-12-18T06:05:05;-7.70;99.90
3332;DHT22;1678;50.94845400;5.30809100;2022-12-18T06:07:33;-7.60;99.90
3332;DHT22;1678;50.94845400;5.30809100;2022-12-18T06:10:01;-7.70;99.90
3332;DHT22;1678;50.94845400;5.30809100;2022-12-18T06:12:29;-7.70;99.90
3332;DHT22;1678;50.94845400;5.30809100;2022-12-18T06:14:59;-7.80;99.90
3332;DHT22;1678;50.94845400;5.30809100;2022-12-18T06:17:28;-7.80;99.90
3332;DHT22;1678;50.94845400;5.30809100;2022-12-18T06:19:57;-7.70;99.90
3332;DHT22;1678;50.94845400;5.30809100;2022-12-18T06:22:25;-7.70;99.90
3332;DHT22;1678;50.94845400;5.30809100;2022-12-18T06:24:53;-7.60;99.90
3332;DHT22;1678;50.94845400;5.30809100;2022-12-18T06:27:21;-7.50;99.90
3332;DHT22;1678;50.94845400;5.30809100;2022-12-18T06:29:49;-7.30;99.90
3332;DHT22;1678;50.94845400;5.30809100;2022-12-18T06:32:19;-7.30;99.90
3332;DHT22;1678;50.94845400;5.30809100;2022-12-18T06:34:47;-7.40;99.90
3332;DHT22;1678;50.94845400;5.30809100;2022-12-18T06:37:15;-7.50;99.90
3332;DHT22;1678;50.94845400;5.30809100;2022-12-18T06:39:44;-7.50;99.90
3332;DHT22;1678;50.94845400;5.30809100;2022-12-18T06:42:12;-7.50;99.90
3332;DHT22;1678;50.94845400;5.30809100;2022-12-18T06:44:40;-7.40;99.90
3332;DHT22;1678;50.94845400;5.30809100;2022-12-18T06:47:08;-7.30;99.90
3332;DHT22;1678;50.94845400;5.30809100;2022-12-18T06:49:38;-7.30;99.90
3332;DHT22;1678;50.94845400;5.30809100;2022-12-18T06:52:06;-7.40;99.90
3332;DHT22;1678;50.94845400;5.30809100;2022-12-18T06:54:34;-7.40;99.90
3332;DHT22;1678;50.94845400;5.30809100;2022-12-18T06:57:02;-7.50;99.90
3332;DHT22;1678;50.94845400;5.30809100;2022-12-18T06:59:31;-7.60;99.90
3332;DHT22;1678;50.94845400;5.30809100;2022-12-18T07:01:59;-7.60;99.90
3332;DHT22;1678;50.94845400;5.30809100;2022-12-18T07:04:28;-7.60;99.90
3332;DHT22;1678;50.94845400;5.30809100;2022-12-18T07:06:58;-7.50;99.90
3332;DHT22;1678;50.94845400;5.30809100;2022-12-18T07:09:26;-7.50;99.90
3332;DHT22;1678;50.94845400;5.30809100;2022-12-18T07:11:57;-7.60;99.90
3332;DHT22;1678;50.94845400;5.30809100;2022-12-18T07:14:25;-7.70;99.90
3332;DHT22;1678;50.94845400;5.30809100;2022-12-18T07:16:53;-7.70;99.90
3332;DHT22;1678;50.94845400;5.30809100;2022-12-18T07:19:24;-7.80;99.90
3332;DHT22;1678;50.94845400;5.30809100;2022-12-18T07:21:53;-7.90;99.90
3332;DHT22;1678;50.94845400;5.30809100;2022-12-18T07:24:22;-7.90;99.90
3332;DHT22;1678;50.94845400;5.30809100;2022-12-18T07:26:51;-7.90;99.90
3332;DHT22;1678;50.94845400;5.30809100;2022-12-18T07:29:19;-7.90;99.90
3332;DHT22;1678;50.94845400;5.30809100;2022-12-18T07:31:47;-7.90;99.90
3332;DHT22;1678;50.94845400;5.30809100;2022-12-18T07:34:16;-7.90;99.90
3332;DHT22;1678;50.94845400;5.30809100;2022-12-18T07:36:45;-7.70;99.90
3332;DHT22;1678;50.94845400;5.30809100;2022-12-18T07:39:13;-7.60;99.90
3332;DHT22;1678;50.94845400;5.30809100;2022-12-18T07:41:42;-7.50;99.90
3332;DHT22;1678;50.94845400;5.30809100;2022-12-18T07:44:30;-7.50;99.90
3332;DHT22;1678;50.94845400;5.30809100;2022-12-18T07:46:58;-7.50;99.90
3332;DHT22;1678;50.94845400;5.30809100;2022-12-18T07:49:27;-7.50;99.90
3332;DHT22;1678;50.94845400;5.30809100;2022-12-18T07:51:56;-7.40;99.90
3332;DHT22;1678;50.94845400;5.30809100;2022-12-18T07:54:25;-7.40;99.90
3332;DHT22;1678;50.94845400;5.30809100;2022-12-18T07:56:54;-7.30;99.90
3332;DHT22;1678;50.94845400;5.30809100;2022-12-18T07:59:22;-7.10;99.90
3332;DHT22;1678;50.94845400;5.30809100;2022-12-18T08:01:51;-6.90;99.90
3332;DHT22;1678;50.94845400;5.30809100;2022-12-18T08:04:19;-6.80;99.90
3332;DHT22;1678;50.94845400;5.30809100;2022-12-18T08:06:47;-6.70;99.90
3332;DHT22;1678;50.94845400;5.30809100;2022-12-18T08:09:16;-6.70;99.90
3332;DHT22;1678;50.94845400;5.30809100;2022-12-18T08:11:44;-6.60;99.90
3332;DHT22;1678;50.94845400;5.30809100;2022-12-18T08:14:14;-6.60;99.90
3332;DHT22;1678;50.94845400;5.30809100;2022-12-18T08:16:42;-6.50;99.90
3332;DHT22;1678;50.94845400;5.30809100;2022-12-18T08:19:10;-6.40;99.90
3332;DHT22;1678;50.94845400;5.30809100;2022-12-18T08:21:38;-6.30;99.90
3332;DHT22;1678;50.94845400;5.30809100;2022-12-18T08:24:08;-6.30;99.90
3332;DHT22;1678;50.94845400;5.30809100;2022-12-18T08:26:37;-6.20;99.90
3332;DHT22;1678;50.94845400;5.30809100;2022-12-18T08:29:05;-6.10;99.90
3332;DHT22;1678;50.94845400;5.30809100;2022-12-18T08:31:35;-6.10;99.90
3332;DHT22;1678;50.94845400;5.30809100;2022-12-18T08:34:03;-6.00;99.90
3332;DHT22;1678;50.94845400;5.30809100;2022-12-18T08:36:32;-5.90;99.90
3332;DHT22;1678;50.94845400;5.30809100;2022-12-18T08:39:00;-5.80;99.90
3332;DHT22;1678;50.94845400;5.30809100;2022-12-18T08:41:28;-5.70;99.90
3332;DHT22;1678;50.94845400;5.30809100;2022-12-18T08:43:57;-5.70;99.90
3332;DHT22;1678;50.94845400;5.30809100;2022-12-18T08:46:44;-5.50;99.90
3332;DHT22;1678;50.94845400;5.30809100;2022-12-18T08:49:12;-5.40;99.90
3332;DHT22;1678;50.94845400;5.30809100;2022-12-18T08:51:40;-5.30;99.90
3332;DHT22;1678;50.94845400;5.30809100;2022-12-18T08:54:11;-5.10;99.90
3332;DHT22;1678;50.94845400;5.30809100;2022-12-18T08:56:40;-5.00;99.90
3332;DHT22;1678;50.94845400;5.30809100;2022-12-18T08:59:08;-4.80;99.90
3332;DHT22;1678;50.94845400;5.30809100;2022-12-18T09:01:46;-4.70;99.90
3332;DHT22;1678;50.94845400;5.30809100;2022-12-18T09:04:15;-4.60;99.90
3332;DHT22;1678;50.94845400;5.30809100;2022-12-18T09:06:43;-4.60;99.90
3332;DHT22;1678;50.94845400;5.30809100;2022-12-18T09:09:11;-4.60;99.90
3332;DHT22;1678;50.94845400;5.30809100;2022-12-18T09:11:39;-4.60;99.90
3332;DHT22;1678;50.94845400;5.30809100;2022-12-18T09:14:09;-4.50;99.90
3332;DHT22;1678;50.94845400;5.30809100;2022-12-18T09:16:37;-4.50;99.90
3332;DHT22;1678;50.94845400;5.30809100;2022-12-18T09:19:07;-4.50;99.90
3332;DHT22;1678;50.94845400;5.30809100;2022-12-18T09:21:38;-4.40;99.90
3332;DHT22;1678;50.94845400;5.30809100;2022-12-18T09:24:14;-4.30;99.90
3332;DHT22;1678;50.94845400;5.30809100;2022-12-18T09:26:42;-4.20;99.90
3332;DHT22;1678;50.94845400;5.30809100;2022-12-18T09:29:13;-4.10;99.90
3332;DHT22;1678;50.94845400;5.30809100;2022-12-18T09:31:45;-3.90;99.90
3332;DHT22;1678;50.94845400;5.30809100;2022-12-18T09:34:14;-3.80;99.90
3332;DHT22;1678;50.94845400;5.30809100;2022-12-18T09:36:43;-3.70;99.90
3332;DHT22;1678;50.94845400;5.30809100;2022-12-18T09:39:13;-3.50;99.90
3332;DHT22;1678;50.94845400;5.30809100;2022-12-18T09:41:44;-3.50;99.90
3332;DHT22;1678;50.94845400;5.30809100;2022-12-18T09:44:20;-3.50;99.90
3332;DHT22;1678;50.94845400;5.30809100;2022-12-18T09:46:54;-3.30;99.90
3332;DHT22;1678;50.94845400;5.30809100;2022-12-18T09:49:27;-3.20;99.90
3332;DHT22;1678;50.94845400;5.30809100;2022-12-18T09:52:02;-3.10;99.90
3332;DHT22;1678;50.94845400;5.30809100;2022-12-18T09:54:33;-3.00;99.90
3332;DHT22;1678;50.94845400;5.30809100;2022-12-18T09:57:04;-2.80;99.90
3332;DHT22;1678;50.94845400;5.30809100;2022-12-18T09:59:35;-2.70;99.90
3332;DHT22;1678;50.94845400;5.30809100;2022-12-18T10:02:14;-2.70;99.90
3332;DHT22;1678;50.94845400;5.30809100;2022-12-18T10:04:49;-2.60;99.90
3332;DHT22;1678;50.94845400;5.30809100;2022-12-18T10:07:23;-2.40;99.90
3332;DHT22;1678;50.94845400;5.30809100;2022-12-18T10:10:00;-2.40;99.90
3332;DHT22;1678;50.94845400;5.30809100;2022-12-18T10:12:34;-2.40;99.90
3332;DHT22;1678;50.94845400;5.30809100;2022-12-18T10:15:13;-2.30;99.90
3332;DHT22;1678;50.94845400;5.30809100;2022-12-18T10:17:50;-2.20;99.90
3332;DHT22;1678;50.94845400;5.30809100;2022-12-18T10:20:27;-2.20;99.90
3332;DHT22;1678;50.94845400;5.30809100;2022-12-18T10:23:01;-2.20;99.90
3332;DHT22;1678;50.94845400;5.30809100;2022-12-18T10:25:36;-1.90;99.90
3332;DHT22;1678;50.94845400;5.30809100;2022-12-18T10:28:12;-1.90;99.90
3332;DHT22;1678;50.94845400;5.30809100;2022-12-18T10:30:42;-1.90;99.90
3332;DHT22;1678;50.94845400;5.30809100;2022-12-18T10:33:12;-2.00;99.90
3332;DHT22;1678;50.94845400;5.30809100;2022-12-18T10:35:43;-2.00;99.90
3332;DHT22;1678;50.94845400;5.30809100;2022-12-18T10:38:24;-2.00;99.90
3332;DHT22;1678;50.94845400;5.30809100;2022-12-18T10:40:54;-2.10;99.90
3332;DHT22;1678;50.94845400;5.30809100;2022-12-18T10:43:25;-2.00;99.90
3332;DHT22;1678;50.94845400;5.30809100;2022-12-18T10:46:15;-2.00;99.90
3332;DHT22;1678;50.94845400;5.30809100;2022-12-18T10:48:53;-1.90;99.90
3332;DHT22;1678;50.94845400;5.30809100;2022-12-18T10:51:26;-1.90;99.90
3332;DHT22;1678;50.94845400;5.30809100;2022-12-18T10:54:00;-1.70;99.90
3332;DHT22;1678;50.94845400;5.30809100;2022-12-18T10:56:31;-1.70;99.90
3332;DHT22;1678;50.94845400;5.30809100;2022-12-18T10:59:02;-1.80;99.90
3332;DHT22;1678;50.94845400;5.30809100;2022-12-18T11:01:46;-1.80;99.90
3332;DHT22;1678;50.94845400;5.30809100;2022-12-18T11:04:18;-1.80;99.90
3332;DHT22;1678;50.94845400;5.30809100;2022-12-18T11:06:57;-1.80;99.90
3332;DHT22;1678;50.94845400;5.30809100;2022-12-18T11:09:27;-1.60;99.90
3332;DHT22;1678;50.94845400;5.30809100;2022-12-18T11:11:57;-1.50;99.90
3332;DHT22;1678;50.94845400;5.30809100;2022-12-18T11:14:28;-1.40;99.90
3332;DHT22;1678;50.94845400;5.30809100;2022-12-18T11:16:58;-1.40;99.90
3332;DHT22;1678;50.94845400;5.30809100;2022-12-18T11:19:52;-1.20;99.90
3332;DHT22;1678;50.94845400;5.30809100;2022-12-18T11:22:25;-1.10;99.90
3332;DHT22;1678;50.94845400;5.30809100;2022-12-18T11:24:56;-1.10;99.90
3332;DHT22;1678;50.94845400;5.30809100;2022-12-18T11:27:48;-1.00;99.90
3332;DHT22;1678;50.94845400;5.30809100;2022-12-18T11:30:22;-0.90;99.90
3332;DHT22;1678;50.94845400;5.30809100;2022-12-18T11:32:54;-0.70;99.90
3332;DHT22;1678;50.94845400;5.30809100;2022-12-18T11:35:34;-0.60;99.90
3332;DHT22;1678;50.94845400;5.30809100;2022-12-18T11:38:13;-0.60;99.90
3332;DHT22;1678;50.94845400;5.30809100;2022-12-18T11:40:47;-0.50;99.90
3332;DHT22;1678;50.94845400;5.30809100;2022-12-18T11:43:25;-0.50;99.90
3332;DHT22;1678;50.94845400;5.30809100;2022-12-18T11:45:56;-0.40;99.90
3332;DHT22;1678;50.94845400;5.30809100;2022-12-18T11:48:28;-0.10;99.90
3332;DHT22;1678;50.94845400;5.30809100;2022-12-18T11:51:01;0.00;99.90
3332;DHT22;1678;50.94845400;5.30809100;2022-12-18T11:53:32;0.00;99.90
3332;DHT22;1678;50.94845400;5.30809100;2022-12-18T11:56:07;0.00;99.90
3332;DHT22;1678;50.94845400;5.30809100;2022-12-18T11:58:47;0.00;99.90
3332;DHT22;1678;50.94845400;5.30809100;2022-12-18T12:01:22;0.10;99.90
3332;DHT22;1678;50.94845400;5.30809100;2022-12-18T12:04:15;0.20;99.90
3332;DHT22;1678;50.94845400;5.30809100;2022-12-18T12:06:50;0.20;99.90
3332;DHT22;1678;50.94845400;5.30809100;2022-12-18T12:09:33;0.20;99.90
3332;DHT22;1678;50.94845400;5.30809100;2022-12-18T12:12:15;0.30;99.90
3332;DHT22;1678;50.94845400;5.30809100;2022-12-18T12:14:52;0.30;99.90
3332;DHT22;1678;50.94845400;5.30809100;2022-12-18T12:17:30;0.30;99.90
3332;DHT22;1678;50.94845400;5.30809100;2022-12-18T12:20:07;0.30;99.90
3332;DHT22;1678;50.94845400;5.30809100;2022-12-18T12:22:43;0.40;99.90
3332;DHT22;1678;50.94845400;5.30809100;2022-12-18T12:25:29;0.40;99.90
3332;DHT22;1678;50.94845400;5.30809100;2022-12-18T12:28:10;0.40;99.90
3332;DHT22;1678;50.94845400;5.30809100;2022-12-18T12:30:51;0.30;99.90
3332;DHT22;1678;50.94845400;5.30809100;2022-12-18T12:33:30;0.30;99.90
3332;DHT22;1678;50.94845400;5.30809100;2022-12-18T12:36:08;0.40;99.90
3332;DHT22;1678;50.94845400;5.30809100;2022-12-18T12:38:42;0.40;99.50
3332;DHT22;1678;50.94845400;5.30809100;2022-12-18T12:41:21;0.40;99.00
3332;DHT22;1678;50.94845400;5.30809100;2022-12-18T12:44:16;0.40;98.40
3332;DHT22;1678;50.94845400;5.30809100;2022-12-18T12:46:46;0.40;97.70
3332;DHT22;1678;50.94845400;5.30809100;2022-12-18T12:49:18;0.40;98.30
3332;DHT22;1678;50.94845400;5.30809100;2022-12-18T12:51:56;0.50;98.50
3332;DHT22;1678;50.94845400;5.30809100;2022-12-18T12:54:28;0.50;97.70
3332;DHT22;1678;50.94845400;5.30809100;2022-12-18T12:57:03;0.50;97.70
3332;DHT22;1678;50.94845400;5.30809100;2022-12-18T12:59:39;0.50;96.80
3332;DHT22;1678;50.94845400;5.30809100;2022-12-18T13:02:17;0.50;95.80
3332;DHT22;1678;50.94845400;5.30809100;2022-12-18T13:04:52;0.50;96.20
3332;DHT22;1678;50.94845400;5.30809100;2022-12-18T13:07:27;0.50;96.00
3332;DHT22;1678;50.94845400;5.30809100;2022-12-18T13:10:20;0.60;96.90
3332;DHT22;1678;50.94845400;5.30809100;2022-12-18T13:12:56;0.60;98.10
3332;DHT22;1678;50.94845400;5.30809100;2022-12-18T13:15:28;0.60;97.10
3332;DHT22;1678;50.94845400;5.30809100;2022-12-18T13:18:25;0.60;98.50
3332;DHT22;1678;50.94845400;5.30809100;2022-12-18T13:21:03;0.60;98.50
3332;DHT22;1678;50.94845400;5.30809100;2022-12-18T13:23:36;0.60;98.30
3332;DHT22;1678;50.94845400;5.30809100;2022-12-18T13:26:32;0.70;99.50
3332;DHT22;1678;50.94845400;5.30809100;2022-12-18T13:29:02;0.70;99.90
3332;DHT22;1678;50.94845400;5.30809100;2022-12-18T13:34:29;0.70;99.90
3332;DHT22;1678;50.94845400;5.30809100;2022-12-18T13:40:00;0.70;99.90
3332;DHT22;1678;50.94845400;5.30809100;2022-12-18T13:42:39;0.70;99.90
3332;DHT22;1678;50.94845400;5.30809100;2022-12-18T13:45:42;0.80;99.90
3332;DHT22;1678;50.94845400;5.30809100;2022-12-18T13:48:31;0.80;99.90
3332;DHT22;1678;50.94845400;5.30809100;2022-12-18T13:51:02;0.70;99.80
3332;DHT22;1678;50.94845400;5.30809100;2022-12-18T13:53:36;0.70;98.80
3332;DHT22;1678;50.94845400;5.30809100;2022-12-18T13:56:06;0.60;99.20
3332;DHT22;1678;50.94845400;5.30809100;2022-12-18T13:58:34;0.70;99.20
3332;DHT22;1678;50.94845400;5.30809100;2022-12-18T14:01:04;0.70;98.40
3332;DHT22;1678;50.94845400;5.30809100;2022-12-18T14:03:33;0.70;98.80
3332;DHT22;1678;50.94845400;5.30809100;2022-12-18T14:06:04;0.70;99.20
3332;DHT22;1678;50.94845400;5.30809100;2022-12-18T14:08:37;0.70;98.50
3332;DHT22;1678;50.94845400;5.30809100;2022-12-18T14:11:20;0.70;99.40
3332;DHT22;1678;50.94845400;5.30809100;2022-12-18T14:13:52;0.70;99.00
3332;DHT22;1678;50.94845400;5.30809100;2022-12-18T14:16:22;0.70;99.40
3332;DHT22;1678;50.94845400;5.30809100;2022-12-18T14:18:53;0.60;99.90